Time,TemperatureF,DewpointF,PressureIn,WindDirection,WindDirectionDegrees,WindSpeedMPH,WindSpeedGustMPH,Humidity,HourlyPrecipIn,Conditions,Clouds,dailyrainin,SoftwareType,DateUTC
2013-06-29 00:01:00,57.4,42.3,30.09,West,270,0.0,0.0,57,0.00,CLR,,0.00,WeatherDisplay:10.37,2013-06-29 07:01:00,
2013-06-29 00:06:00,57.2,42.1,30.09,SW,225,0.0,0.0,57,0.00,CLR,,0.00,WeatherDisplay:10.37,2013-06-29 07:06:00,
2013-06-29 00:11:00,57.0,41.9,30.09,SW,225,1.2,0.0,57,0.00,CLR,,0.00,WeatherDisplay:10.37,2013-06-29 07:11:00,
2013-06-29 00:16:00,56.8,41.8,30.09,South,180,0.0,0.0,57,0.00,CLR,,0.00,WeatherDisplay:10.37,2013-06-29 07:16:00,
2013-06-29 00:21:00,57.2,42.5,30.09,South,180,0.0,0.0,58,0.00,CLR,,0.00,WeatherDisplay:10.37,2013-06-29 07:21:00,
2013-06-29 00:26:00,57.2,42.5,30.09,West,270,1.2,1.2,58,0.00,CLR,,0.00,WeatherDisplay:10.37,2013-06-29 07:26:00,
2013-06-29 00:31:00,57.4,43.2,30.10,West,270,0.0,0.0,59,0.00,CLR,,0.00,WeatherDisplay:10.37,2013-06-29 07:31:00,
2013-06-29 00:36:00,57.2,43.0,30.10,SW,225,1.2,0.0,59,0.00,CLR,,0.00,WeatherDisplay:10.37,2013-06-29 07:36:00,
2013-06-29 00:41:00,56.8,42.7,30.10,South,180,3.5,0.0,59,0.00,CLR,,0.00,WeatherDisplay:10.37,2013-06-29 07:41:00,
2013-06-29 00:46:00,56.8,42.7,30.10,SW,225,1.2,0.0,59,0.00,CLR,,0.00,WeatherDisplay:10.37,2013-06-29 07:46:00,
2013-06-29 00:51:00,56.7,42.5,30.10,West,270,0.0,0.0,59,0.00,CLR,,0.00,WeatherDisplay:10.37,2013-06-29 07:51:00,
2013-06-29 00:56:00,56.7,42.9,30.09,West,270,0.0,0.0,60,0.00,CLR,,0.00,WeatherDisplay:10.37,2013-06-29 07:56:00,
2013-06-29 01:01:00,56.7,42.9,30.09,West,270,1.2,0.0,60,0.00,CLR,,0.00,WeatherDisplay:10.37,2013-06-29 08:01:00,
2013-06-29 01:06:00,56.7,42.9,30.09,SW,225,0.0,0.0,60,0.00,CLR,,0.00,WeatherDisplay:10.37,2013-06-29 08:06:00,
2013-06-29 01:11:00,56.7,42.9,30.09,West,270,1.2,0.0,60,0.00,CLR,,0.00,WeatherDisplay:10.37,2013-06-29 08:11:00,
2013-06-29 01:16:00,56.5,42.8,30.09,SW,225,0.0,0.0,60,0.00,CLR,,0.00,WeatherDisplay:10.37,2013-06-29 08:16:00,
2013-06-29 01:21:00,56.3,42.6,30.09,SW,225,0.0,0.0,60,0.00,CLR,,0.00,WeatherDisplay:10.37,2013-06-29 08:21:00,
2013-06-29 01:26:00,56.3,43.0,30.08,SW,225,0.0,0.0,61,0.00,CLR,,0.00,WeatherDisplay:10.37,2013-06-29 08:26:00,
2013-06-29 01:31:00,56.3,43.0,30.09,SW,225,0.0,0.0,61,0.00,CLR,,0.00,WeatherDisplay:10.37,2013-06-29 08:31:00,
2013-06-29 01:36:00,56.3,43.0,30.09,West,270,0.0,0.0,61,0.00,CLR,,0.00,WeatherDisplay:10.37,2013-06-29 08:36:00,
2013-06-29 01:41:00,56.3,43.0,30.09,West,270,1.2,0.0,61,0.00,CLR,,0.00,WeatherDisplay:10.37,2013-06-29 08:41:00,
2013-06-29 01:46:00,56.5,43.2,30.08,East,90,0.0,0.0,61,0.00,CLR,,0.00,WeatherDisplay:10.37,2013-06-29 08:46:00,
2013-06-29 01:51:00,56.5,43.2,30.09,South,180,1.2,0.0,61,0.00,CLR,,0.00,WeatherDisplay:10.37,2013-06-29 08:51:00,
2013-06-29 01:56:00,56.3,43.0,30.08,South,180,0.0,0.0,61,0.00,CLR,,0.00,WeatherDisplay:10.37,2013-06-29 08:56:00,
2013-06-29 02:01:00,56.1,42.8,30.08,West,270,1.2,1.2,61,0.00,CLR,,0.00,WeatherDisplay:10.37,2013-06-29 09:01:00,
2013-06-29 02:06:00,56.3,43.4,30.09,SW,225,0.0,0.0,62,0.00,CLR,,0.00,WeatherDisplay:10.37,2013-06-29 09:06:00,
2013-06-29 02:11:00,56.1,42.8,30.09,SW,225,1.2,0.0,61,0.00,CLR,,0.00,WeatherDisplay:10.37,2013-06-29 09:11:00,
2013-06-29 02:16:00,55.9,43.1,30.09,SW,225,0.0,0.0,62,0.00,CLR,,0.00,WeatherDisplay:10.37,2013-06-29 09:16:00,
2013-06-29 02:21:00,55.9,43.1,30.09,SW,225,1.2,0.0,62,0.00,CLR,,0.00,WeatherDisplay:10.37,2013-06-29 09:21:00,
2013-06-29 02:26:00,55.9,43.1,30.08,SW,225,0.0,0.0,62,0.00,CLR,,0.00,WeatherDisplay:10.37,2013-06-29 09:26:00,
2013-06-29 02:31:00,55.8,42.9,30.09,West,270,1.2,0.0,62,0.00,CLR,,0.00,WeatherDisplay:10.37,2013-06-29 09:31:00,
2013-06-29 02:36:00,55.8,43.3,30.09,West,270,0.0,0.0,63,0.00,CLR,,0.00,WeatherDisplay:10.37,2013-06-29 09:36:00,
2013-06-29 02:41:00,55.9,43.5,30.09,SE,135,0.0,0.0,63,0.00,CLR,,0.00,WeatherDisplay:10.37,2013-06-29 09:41:00,
2013-06-29 02:46:00,55.9,43.5,30.09,South,180,0.0,0.0,63,0.00,CLR,,0.00,WeatherDisplay:10.37,2013-06-29 09:46:00,
2013-06-29 02:51:00,55.9,43.9,30.09,SW,225,0.0,0.0,64,0.00,CLR,,0.00,WeatherDisplay:10.37,2013-06-29 09:51:00,
2013-06-29 02:56:00,55.9,43.9,30.09,South,180,0.0,0.0,64,0.00,CLR,,0.00,WeatherDisplay:10.37,2013-06-29 09:56:00,
2013-06-29 03:01:00,55.8,43.8,30.09,SW,225,0.0,0.0,64,0.00,CLR,,0.00,WeatherDisplay:10.37,2013-06-29 10:01:00,
2013-06-29 03:06:00,55.8,43.8,30.09,SW,225,0.0,0.0,64,0.00,CLR,,0.00,WeatherDisplay:10.37,2013-06-29 10:06:00,
2013-06-29 03:11:00,55.8,43.8,30.09,West,270,0.0,0.0,64,0.00,CLR,,0.00,WeatherDisplay:10.37,2013-06-29 10:11:00,
2013-06-29 03:16:00,55.9,43.9,30.09,South,180,0.0,0.0,64,0.00,CLR,,0.00,WeatherDisplay:10.37,2013-06-29 10:16:00,
2013-06-29 03:21:00,55.8,43.8,30.09,SW,225,0.0,0.0,64,0.00,CLR,,0.00,WeatherDisplay:10.37,2013-06-29 10:21:00,
2013-06-29 03:26:00,55.8,43.8,30.09,SW,225,0.0,0.0,64,0.00,CLR,,0.00,WeatherDisplay:10.37,2013-06-29 10:26:00,
2013-06-29 03:31:00,55.9,43.9,30.09,South,180,0.0,0.0,64,0.00,CLR,,0.00,WeatherDisplay:10.37,2013-06-29 10:31:00,
2013-06-29 03:36:00,55.9,44.3,30.09,South,180,0.0,0.0,65,0.00,CLR,,0.00,WeatherDisplay:10.37,2013-06-29 10:36:00,
2013-06-29 03:41:00,55.6,43.6,30.09,South,180,0.0,0.0,64,0.00,CLR,,0.00,WeatherDisplay:10.37,2013-06-29 10:41:00,
2013-06-29 03:46:00,55.6,43.6,30.09,South,180,0.0,0.0,64,0.00,CLR,,0.00,WeatherDisplay:10.37,2013-06-29 10:46:00,
2013-06-29 03:51:00,55.4,43.4,30.09,South,180,0.0,0.0,64,0.00,CLR,,0.00,WeatherDisplay:10.37,2013-06-29 10:51:00,
2013-06-29 03:56:00,55.2,43.2,30.09,SW,225,0.0,0.0,64,0.00,CLR,,0.00,WeatherDisplay:10.37,2013-06-29 10:56:00,
2013-06-29 04:01:00,55.0,43.1,30.10,SW,225,0.0,0.0,64,0.00,CLR,,0.00,WeatherDisplay:10.37,2013-06-29 11:01:00,
2013-06-29 04:06:00,55.2,43.7,30.09,SE,135,0.0,0.0,65,0.00,CLR,,0.00,WeatherDisplay:10.37,2013-06-29 11:06:00,
2013-06-29 04:11:00,55.0,43.5,30.09,SE,135,0.0,0.0,65,0.00,CLR,,0.00,WeatherDisplay:10.37,2013-06-29 11:11:00,
2013-06-29 04:16:00,55.0,43.1,30.09,SW,225,0.0,0.0,64,0.00,CLR,,0.00,WeatherDisplay:10.37,2013-06-29 11:16:00,
2013-06-29 04:21:00,54.9,42.9,30.09,SW,225,0.0,0.0,64,0.00,CLR,,0.00,WeatherDisplay:10.37,2013-06-29 11:21:00,
2013-06-29 04:26:00,54.7,42.7,30.09,SW,225,0.0,0.0,64,0.00,CLR,,0.00,WeatherDisplay:10.37,2013-06-29 11:26:00,
2013-06-29 04:31:00,54.5,42.6,30.09,West,270,0.0,0.0,64,0.00,CLR,,0.00,WeatherDisplay:10.37,2013-06-29 11:31:00,
2013-06-29 04:36:00,54.5,43.0,30.09,West,270,0.0,0.0,65,0.00,CLR,,0.00,WeatherDisplay:10.37,2013-06-29 11:36:00,
2013-06-29 04:41:00,54.3,42.4,30.09,SW,225,0.0,0.0,64,0.00,CLR,,0.00,WeatherDisplay:10.37,2013-06-29 11:41:00,
2013-06-29 04:46:00,54.0,42.1,30.09,SW,225,0.0,0.0,64,0.00,CLR,,0.00,WeatherDisplay:10.37,2013-06-29 11:46:00,
2013-06-29 04:51:00,53.8,41.9,30.09,SW,225,0.0,0.0,64,0.00,CLR,,0.00,WeatherDisplay:10.37,2013-06-29 11:51:00,
2013-06-29 04:56:00,53.6,41.7,30.09,SW,225,0.0,0.0,64,0.00,CLR,,0.00,WeatherDisplay:10.37,2013-06-29 11:56:00,
2013-06-29 05:01:00,53.4,41.5,30.09,SW,225,0.0,0.0,64,0.00,CLR,,0.00,WeatherDisplay:10.37,2013-06-29 12:01:00,
2013-06-29 05:06:00,53.6,42.1,30.09,SW,225,0.0,0.0,65,0.00,CLR,,0.00,WeatherDisplay:10.37,2013-06-29 12:06:00,
2013-06-29 05:11:00,53.2,41.8,30.09,SW,225,0.0,0.0,65,0.00,CLR,,0.00,WeatherDisplay:10.37,2013-06-29 12:11:00,
2013-06-29 05:16:00,53.2,41.8,30.09,SW,225,0.0,0.0,65,0.00,CLR,,0.00,WeatherDisplay:10.37,2013-06-29 12:16:00,
2013-06-29 05:21:00,53.1,41.6,30.09,SW,225,0.0,0.0,65,0.00,CLR,,0.00,WeatherDisplay:10.37,2013-06-29 12:21:00,
2013-06-29 05:26:00,53.1,41.6,30.09,NE,45,1.2,0.0,65,0.00,CLR,,0.00,WeatherDisplay:10.37,2013-06-29 12:26:00,
2013-06-29 05:31:00,53.2,41.8,30.09,NE,45,0.0,0.0,65,0.00,CLR,,0.00,WeatherDisplay:10.37,2013-06-29 12:31:00,
2013-06-29 05:36:00,53.2,42.2,30.09,NE,45,0.0,0.0,66,0.00,CLR,,0.00,WeatherDisplay:10.37,2013-06-29 12:36:00,
2013-06-29 05:41:00,53.2,41.8,30.09,NE,45,0.0,0.0,65,0.00,CLR,,0.00,WeatherDisplay:10.37,2013-06-29 12:41:00,
2013-06-29 05:46:00,53.2,41.8,30.09,NE,45,0.0,0.0,65,0.00,CLR,,0.00,WeatherDisplay:10.37,2013-06-29 12:46:00,
2013-06-29 05:51:00,53.1,41.6,30.09,NE,45,0.0,0.0,65,0.00,CLR,,0.00,WeatherDisplay:10.37,2013-06-29 12:51:00,
2013-06-29 05:56:00,53.2,42.2,30.08,West,270,0.0,0.0,66,0.00,CLR,,0.00,WeatherDisplay:10.37,2013-06-29 12:56:00,
2013-06-29 06:01:00,53.2,42.2,30.08,West,270,0.0,0.0,66,0.00,CLR,,0.00,WeatherDisplay:10.37,2013-06-29 13:01:00,
2013-06-29 06:06:00,53.4,42.3,30.08,West,270,0.0,0.0,66,0.00,CLR,,0.00,WeatherDisplay:10.37,2013-06-29 13:06:00,
2013-06-29 06:11:00,53.6,42.5,30.08,West,270,0.0,0.0,66,0.00,CLR,,0.00,WeatherDisplay:10.37,2013-06-29 13:11:00,
2013-06-29 06:16:00,53.8,42.7,30.08,South,180,0.0,0.0,66,0.00,CLR,,0.00,WeatherDisplay:10.37,2013-06-29 13:16:00,
2013-06-29 06:21:00,53.8,42.7,30.08,South,180,0.0,0.0,66,0.00,CLR,,0.00,WeatherDisplay:10.37,2013-06-29 13:21:00,
2013-06-29 06:26:00,54.1,43.4,30.08,SW,225,0.0,0.0,67,0.00,CLR,,0.00,WeatherDisplay:10.37,2013-06-29 13:26:00,
2013-06-29 06:31:00,54.9,44.1,30.08,SW,225,0.0,0.0,67,0.00,CLR,,0.00,WeatherDisplay:10.37,2013-06-29 13:31:00,
2013-06-29 06:36:00,55.4,44.6,30.08,West,270,0.0,0.0,67,0.00,CLR,,0.00,WeatherDisplay:10.37,2013-06-29 13:36:00,
2013-06-29 06:41:00,56.3,45.9,30.08,West,270,1.2,0.0,68,0.00,CLR,,0.00,WeatherDisplay:10.37,2013-06-29 13:41:00,
2013-06-29 06:46:00,58.5,48.3,30.07,West,270,1.2,1.2,69,0.00,CLR,,0.00,WeatherDisplay:10.37,2013-06-29 13:46:00,
2013-06-29 06:51:00,59.7,49.1,30.07,West,270,1.2,0.0,68,0.00,CLR,,0.00,WeatherDisplay:10.37,2013-06-29 13:51:00,
2013-06-29 06:56:00,60.4,47.8,30.07,South,180,1.2,0.0,63,0.00,CLR,,0.00,WeatherDisplay:10.37,2013-06-29 13:56:00,
2013-06-29 07:01:00,61.3,47.8,30.07,South,180,0.0,0.0,61,0.00,CLR,,0.00,WeatherDisplay:10.37,2013-06-29 14:01:00,
2013-06-29 07:06:00,62.2,47.3,30.07,South,180,1.2,0.0,58,0.00,CLR,,0.00,WeatherDisplay:10.37,2013-06-29 14:06:00,
2013-06-29 07:11:00,62.1,45.7,30.07,South,180,0.0,0.0,55,0.00,CLR,,0.00,WeatherDisplay:10.37,2013-06-29 14:11:00,
2013-06-29 07:16:00,62.2,44.9,30.06,South,180,0.0,0.0,53,0.00,CLR,,0.00,WeatherDisplay:10.37,2013-06-29 14:16:00,
2013-06-29 07:21:00,62.2,43.9,30.07,South,180,1.2,0.0,51,0.00,CLR,,0.00,WeatherDisplay:10.37,2013-06-29 14:21:00,
2013-06-29 07:26:00,63.3,44.4,30.06,South,180,0.0,0.0,50,0.00,CLR,,0.00,WeatherDisplay:10.37,2013-06-29 14:26:00,
2013-06-29 07:31:00,63.3,42.7,30.06,East,90,1.2,0.0,47,0.00,CLR,,0.00,WeatherDisplay:10.37,2013-06-29 14:31:00,
2013-06-29 07:37:00,63.3,42.2,30.06,West,270,0.0,0.0,46,0.00,CLR,,0.00,WeatherDisplay:10.37,2013-06-29 14:37:00,
2013-06-29 07:42:00,63.1,41.4,30.06,NW,315,0.0,0.0,45,0.00,CLR,,0.00,WeatherDisplay:10.37,2013-06-29 14:42:00,
2013-06-29 07:47:00,63.1,40.9,30.06,South,180,0.0,0.0,44,0.00,CLR,,0.00,WeatherDisplay:10.37,2013-06-29 14:47:00,
2013-06-29 07:52:00,63.3,40.4,30.06,South,180,0.0,0.0,43,0.00,CLR,,0.00,WeatherDisplay:10.37,2013-06-29 14:52:00,
2013-06-29 07:57:00,63.9,39.7,30.06,South,180,0.0,0.0,41,0.00,CLR,,0.00,WeatherDisplay:10.37,2013-06-29 14:57:00,
2013-06-29 08:02:00,66.7,42.9,30.06,SE,135,1.2,0.0,42,0.00,CLR,,0.00,WeatherDisplay:10.37,2013-06-29 15:02:00,
2013-06-29 08:07:00,70.5,35.8,30.06,South,180,0.0,0.0,28,0.00,CLR,,0.00,WeatherDisplay:10.37,2013-06-29 15:07:00,
2013-06-29 08:12:00,73.2,17.5,30.06,SW,225,1.2,0.0,12,0.00,CLR,,0.00,WeatherDisplay:10.37,2013-06-29 15:12:00,
2013-06-29 08:17:00,74.8,18.8,30.06,SW,225,1.2,0.0,12,0.00,CLR,,0.00,WeatherDisplay:10.37,2013-06-29 15:17:00,
2013-06-29 08:22:00,76.6,20.2,30.06,SW,225,0.0,0.0,12,0.00,CLR,,0.00,WeatherDisplay:10.37,2013-06-29 15:22:00,
2013-06-29 08:27:00,78.1,21.3,30.06,West,270,3.5,3.5,12,0.00,CLR,,0.00,WeatherDisplay:10.37,2013-06-29 15:27:00,
2013-06-29 08:32:00,77.7,21.0,30.06,SW,225,1.2,0.0,12,0.00,CLR,,0.00,WeatherDisplay:10.37,2013-06-29 15:32:00,
2013-06-29 08:37:00,77.4,20.7,30.06,NE,45,2.3,2.3,12,0.00,CLR,,0.00,WeatherDisplay:10.37,2013-06-29 15:37:00,
2013-06-29 08:42:00,77.0,20.5,30.06,South,180,2.2,2.2,12,0.00,CLR,,0.00,WeatherDisplay:10.37,2013-06-29 15:42:00,
2013-06-29 08:47:00,78.4,21.6,30.06,SW,225,1.2,1.2,12,0.00,CLR,,0.00,WeatherDisplay:10.37,2013-06-29 15:47:00,
2013-06-29 08:52:00,79.3,22.3,30.06,South,180,1.2,0.0,12,0.00,CLR,,0.00,WeatherDisplay:10.37,2013-06-29 15:52:00,
2013-06-29 08:57:00,80.1,22.8,30.06,West,270,1.2,0.0,12,0.00,CLR,,0.00,WeatherDisplay:10.37,2013-06-29 15:57:00,
2013-06-29 08:58:00,80.1,22.8,30.06,West,270,1.6,1.6,12,0.00,CLR,,0.00,WeatherDisplay:10.37,2013-06-29 15:58:00,
2013-06-29 09:03:00,81.0,23.5,30.06,SE,135,2.3,2.3,12,0.00,CLR,,0.00,WeatherDisplay:10.37,2013-06-29 16:03:00,
2013-06-29 09:08:00,81.5,24.0,30.06,North,0,2.3,0.0,12,0.00,CLR,,0.00,WeatherDisplay:10.37,2013-06-29 16:08:00,
2013-06-29 09:13:00,81.9,24.2,30.06,North,0,3.5,3.5,12,0.00,CLR,,0.00,WeatherDisplay:10.37,2013-06-29 16:13:00,
2013-06-29 09:18:00,82.8,24.9,30.05,North,0,1.2,1.2,12,0.00,CLR,,0.00,WeatherDisplay:10.37,2013-06-29 16:18:00,
2013-06-29 09:23:00,81.9,24.2,30.06,East,90,2.3,0.0,12,0.00,CLR,,0.00,WeatherDisplay:10.37,2013-06-29 16:23:00,
2013-06-29 09:28:00,81.3,23.8,30.06,East,90,3.5,0.0,12,0.00,CLR,,0.00,WeatherDisplay:10.37,2013-06-29 16:28:00,
2013-06-29 09:33:00,81.9,24.2,30.06,SSW,202,3.5,3.5,12,0.00,CLR,,0.00,WeatherDisplay:10.37,2013-06-29 16:33:00,
2013-06-29 09:38:00,82.2,24.5,30.05,NE,45,3.5,3.5,12,0.00,CLR,,0.00,WeatherDisplay:10.37,2013-06-29 16:38:00,
2013-06-29 09:43:00,82.4,24.7,30.05,North,0,3.5,0.0,12,0.00,CLR,,0.00,WeatherDisplay:10.37,2013-06-29 16:43:00,
2013-06-29 09:48:00,83.5,25.5,30.05,NE,45,3.5,3.5,12,0.00,CLR,,0.00,WeatherDisplay:10.37,2013-06-29 16:48:00,
2013-06-29 09:53:00,82.8,24.9,30.05,NE,45,4.6,4.6,12,0.00,CLR,,0.00,WeatherDisplay:10.37,2013-06-29 16:53:00,
2013-06-29 09:58:00,82.6,24.8,30.04,NE,45,3.5,3.5,12,0.00,CLR,,0.00,WeatherDisplay:10.37,2013-06-29 16:58:00,
2013-06-29 10:03:00,83.3,25.4,30.04,NE,45,3.5,3.5,12,0.00,CLR,,0.00,WeatherDisplay:10.37,2013-06-29 17:03:00,
2013-06-29 10:08:00,83.7,25.6,30.04,North,0,3.5,3.5,12,0.00,CLR,,0.00,WeatherDisplay:10.37,2013-06-29 17:08:00,
2013-06-29 10:13:00,83.3,25.4,30.04,NE,45,3.5,3.5,12,0.00,CLR,,0.00,WeatherDisplay:10.37,2013-06-29 17:13:00,
2013-06-29 10:18:00,83.5,25.5,30.04,NE,45,2.3,0.0,12,0.00,CLR,,0.00,WeatherDisplay:10.37,2013-06-29 17:18:00,
2013-06-29 10:23:00,84.4,26.2,30.03,NE,45,4.6,4.6,12,0.00,CLR,,0.00,WeatherDisplay:10.37,2013-06-29 17:23:00,
2013-06-29 10:28:00,84.7,26.5,30.03,NE,45,5.8,5.8,12,0.00,CLR,,0.00,WeatherDisplay:10.37,2013-06-29 17:28:00,
2013-06-29 10:33:00,84.7,26.5,30.03,NE,45,2.3,2.3,12,0.00,CLR,,0.00,WeatherDisplay:10.37,2013-06-29 17:33:00,
2013-06-29 10:38:00,85.5,27.0,30.03,SW,225,3.5,0.0,12,0.00,CLR,,0.00,WeatherDisplay:10.37,2013-06-29 17:38:00,
2013-06-29 10:43:00,85.8,27.3,30.03,NE,45,3.5,3.5,12,0.00,CLR,,0.00,WeatherDisplay:10.37,2013-06-29 17:43:00,
2013-06-29 10:48:00,85.3,26.9,30.02,East,90,4.6,4.6,12,0.00,CLR,,0.00,WeatherDisplay:10.37,2013-06-29 17:48:00,
2013-06-29 10:53:00,85.6,27.2,30.02,North,0,3.5,3.5,12,0.00,CLR,,0.00,WeatherDisplay:10.37,2013-06-29 17:53:00,
2013-06-29 10:58:00,86.9,28.2,30.02,SE,135,3.5,3.5,12,0.00,CLR,,0.00,WeatherDisplay:10.37,2013-06-29 17:58:00,
2013-06-29 11:03:00,86.2,27.6,30.02,North,0,3.5,3.5,12,0.00,CLR,,0.00,WeatherDisplay:10.37,2013-06-29 18:03:00,
2013-06-29 11:08:00,86.5,27.9,30.02,West,270,1.2,0.0,12,0.00,CLR,,0.00,WeatherDisplay:10.37,2013-06-29 18:08:00,
2013-06-29 11:13:00,87.8,28.9,30.02,SW,225,5.8,5.8,12,0.00,CLR,,0.00,WeatherDisplay:10.37,2013-06-29 18:13:00,
2013-06-29 11:18:00,88.0,29.0,30.02,West,270,2.3,2.3,12,0.00,CLR,,0.00,WeatherDisplay:10.37,2013-06-29 18:18:00,
2013-06-29 11:21:00,88.2,29.1,30.02,West,270,5.8,5.8,12,0.00,CLR,,0.00,WeatherDisplay:10.37,2013-06-29 18:21:00,
2013-06-29 11:26:00,87.8,28.9,30.02,West,270,4.6,4.6,12,0.00,CLR,,0.00,WeatherDisplay:10.37,2013-06-29 18:26:00,
2013-06-29 11:31:00,88.7,29.6,30.02,East,90,3.5,3.5,12,0.00,CLR,,0.00,WeatherDisplay:10.37,2013-06-29 18:31:00,
2013-06-29 11:36:00,89.1,29.8,30.02,West,270,3.5,3.5,12,0.00,CLR,,0.00,WeatherDisplay:10.37,2013-06-29 18:36:00,
2013-06-29 11:41:00,87.6,28.7,30.01,SW,225,6.9,6.9,12,0.00,CLR,,0.00,WeatherDisplay:10.37,2013-06-29 18:41:00,
2013-06-29 11:46:00,87.6,28.7,30.01,SE,135,3.5,0.0,12,0.00,CLR,,0.00,WeatherDisplay:10.37,2013-06-29 18:46:00,
2013-06-29 11:51:00,88.7,29.6,30.01,West,270,3.5,3.5,12,0.00,CLR,,0.00,WeatherDisplay:10.37,2013-06-29 18:51:00,
2013-06-29 11:56:00,89.2,30.0,30.01,NW,315,8.1,8.1,12,0.00,CLR,,0.00,WeatherDisplay:10.37,2013-06-29 18:56:00,
2013-06-29 12:01:00,88.9,29.7,30.00,North,0,5.8,5.8,12,0.00,CLR,,0.00,WeatherDisplay:10.37,2013-06-29 19:01:00,
2013-06-29 12:06:00,88.5,29.4,30.00,SE,135,3.5,3.5,12,0.00,CLR,,0.00,WeatherDisplay:10.37,2013-06-29 19:06:00,
2013-06-29 12:11:00,89.4,30.1,30.00,WNW,292,5.8,5.8,12,0.00,CLR,,0.00,WeatherDisplay:10.37,2013-06-29 19:11:00,
2013-06-29 12:16:00,90.0,30.5,30.00,West,270,4.6,4.6,12,0.00,CLR,,0.00,WeatherDisplay:10.37,2013-06-29 19:16:00,
2013-06-29 12:21:00,89.4,30.1,30.00,West,270,6.9,6.9,12,0.00,CLR,,0.00,WeatherDisplay:10.37,2013-06-29 19:21:00,
2013-06-29 12:26:00,89.4,30.1,30.00,NW,315,5.8,5.8,12,0.00,CLR,,0.00,WeatherDisplay:10.37,2013-06-29 19:26:00,
2013-06-29 12:31:00,89.8,30.4,30.00,West,270,3.5,3.5,12,0.00,CLR,,0.00,WeatherDisplay:10.37,2013-06-29 19:31:00,
2013-06-29 12:36:00,89.8,30.4,30.00,NW,315,5.8,5.8,12,0.00,CLR,,0.00,WeatherDisplay:10.37,2013-06-29 19:36:00,
2013-06-29 12:41:00,90.9,31.2,29.99,NE,45,3.5,3.5,12,0.00,CLR,,0.00,WeatherDisplay:10.37,2013-06-29 19:41:00,
2013-06-29 12:46:00,91.9,32.1,29.99,SE,135,3.5,0.0,12,0.00,CLR,,0.00,WeatherDisplay:10.37,2013-06-29 19:46:00,
2013-06-29 12:51:00,92.5,32.5,29.99,SW,225,2.3,2.3,12,0.00,CLR,,0.00,WeatherDisplay:10.37,2013-06-29 19:51:00,
2013-06-29 12:56:00,92.5,32.5,29.99,NE,45,4.6,4.6,12,0.00,CLR,,0.00,WeatherDisplay:10.37,2013-06-29 19:56:00,
2013-06-29 13:01:00,90.9,31.2,29.99,East,90,5.8,5.8,12,0.00,CLR,,0.00,WeatherDisplay:10.37,2013-06-29 20:01:00,
2013-06-29 13:06:00,90.3,30.8,29.99,NW,315,3.5,3.5,12,0.00,CLR,,0.00,WeatherDisplay:10.37,2013-06-29 20:06:00,
2013-06-29 13:11:00,90.0,30.5,29.99,NW,315,6.9,6.9,12,0.00,CLR,,0.00,WeatherDisplay:10.37,2013-06-29 20:11:00,
2013-06-29 13:16:00,90.9,31.2,29.98,NE,45,3.5,3.5,12,0.00,CLR,,0.00,WeatherDisplay:10.37,2013-06-29 20:16:00,
2013-06-29 13:21:00,91.4,31.6,29.98,SE,135,2.3,0.0,12,0.00,CLR,,0.00,WeatherDisplay:10.37,2013-06-29 20:21:00,
2013-06-29 13:26:00,91.4,31.6,29.98,North,0,5.8,5.8,12,0.00,CLR,,0.00,WeatherDisplay:10.37,2013-06-29 20:26:00,
2013-06-29 13:31:00,91.9,32.1,29.98,NW,315,5.8,5.8,12,0.00,CLR,,0.00,WeatherDisplay:10.37,2013-06-29 20:31:00,
2013-06-29 13:36:00,92.1,32.2,29.98,North,0,3.5,3.5,12,0.00,CLR,,0.00,WeatherDisplay:10.37,2013-06-29 20:36:00,
2013-06-29 13:41:00,91.8,31.9,29.97,East,90,5.8,5.8,12,0.00,CLR,,0.00,WeatherDisplay:10.37,2013-06-29 20:41:00,
2013-06-29 13:46:00,91.0,31.4,29.97,North,0,3.5,3.5,12,0.00,CLR,,0.00,WeatherDisplay:10.37,2013-06-29 20:46:00,
2013-06-29 13:51:00,92.8,32.8,29.97,NW,315,3.5,3.5,12,0.00,CLR,,0.00,WeatherDisplay:10.37,2013-06-29 20:51:00,
2013-06-29 13:56:00,92.8,32.8,29.97,NE,45,3.5,0.0,12,0.00,CLR,,0.00,WeatherDisplay:10.37,2013-06-29 20:56:00,
2013-06-29 14:01:00,93.6,33.3,29.97,West,270,9.2,9.2,12,0.00,CLR,,0.00,WeatherDisplay:10.37,2013-06-29 21:01:00,
2013-06-29 14:06:00,93.7,33.5,29.97,NW,315,8.1,8.1,12,0.00,CLR,,0.00,WeatherDisplay:10.37,2013-06-29 21:06:00,
2013-06-29 14:11:00,91.4,31.6,29.97,West,270,10.4,10.4,12,0.00,CLR,,0.00,WeatherDisplay:10.37,2013-06-29 21:11:00,
2013-06-29 14:16:00,91.0,31.4,29.97,WNW,292,5.8,5.8,12,0.00,CLR,,0.00,WeatherDisplay:10.37,2013-06-29 21:16:00,
2013-06-29 14:21:00,91.6,31.8,29.97,NW,315,8.1,8.1,12,0.00,CLR,,0.00,WeatherDisplay:10.37,2013-06-29 21:21:00,
2013-06-29 14:26:00,90.5,30.9,29.97,West,270,6.9,6.9,12,0.00,CLR,,0.00,WeatherDisplay:10.37,2013-06-29 21:26:00,
2013-06-29 14:31:00,89.8,30.4,29.97,SW,225,6.9,6.9,12,0.00,CLR,,0.00,WeatherDisplay:10.37,2013-06-29 21:31:00,
2013-06-29 14:36:00,88.7,29.6,29.98,North,0,6.9,6.9,12,0.00,CLR,,0.00,WeatherDisplay:10.37,2013-06-29 21:36:00,
2013-06-29 14:41:00,86.9,28.2,29.98,NW,315,15.0,15.0,12,0.00,CLR,,0.00,WeatherDisplay:10.37,2013-06-29 21:41:00,
2013-06-29 14:46:00,85.8,27.3,29.98,North,0,16.1,16.1,12,0.00,CLR,,0.00,WeatherDisplay:10.37,2013-06-29 21:46:00,
2013-06-29 14:51:00,86.2,27.6,29.98,West,270,10.4,10.4,12,0.00,CLR,,0.00,WeatherDisplay:10.37,2013-06-29 21:51:00,
2013-06-29 14:56:00,85.5,27.0,29.98,South,180,3.5,3.5,12,0.00,CLR,,0.00,WeatherDisplay:10.37,2013-06-29 21:56:00,
2013-06-29 15:01:00,85.6,27.2,29.99,SW,225,5.8,0.0,12,0.00,CLR,,0.00,WeatherDisplay:10.37,2013-06-29 22:01:00,
2013-06-29 15:06:00,85.1,26.8,29.99,West,270,5.8,5.8,12,0.00,CLR,,0.00,WeatherDisplay:10.37,2013-06-29 22:06:00,
2013-06-29 15:11:00,84.2,26.1,29.99,NE,45,8.1,8.1,12,0.00,CLR,,0.00,WeatherDisplay:10.37,2013-06-29 22:11:00,
2013-06-29 15:16:00,83.1,25.2,29.99,SW,225,10.4,10.4,12,0.00,CLR,,0.00,WeatherDisplay:10.37,2013-06-29 22:16:00,
2013-06-29 15:21:00,82.9,25.1,29.99,SW,225,5.8,5.8,12,0.00,CLR,,0.00,WeatherDisplay:10.37,2013-06-29 22:21:00,
2013-06-29 15:26:00,83.8,25.8,29.99,NW,315,4.6,4.6,12,0.00,CLR,,0.00,WeatherDisplay:10.37,2013-06-29 22:26:00,
2013-06-29 15:31:00,84.6,26.3,29.99,North,0,3.5,3.5,12,0.00,CLR,,0.00,WeatherDisplay:10.37,2013-06-29 22:31:00,
2013-06-29 15:36:00,84.6,26.3,29.99,West,270,4.6,4.6,12,0.00,CLR,,0.00,WeatherDisplay:10.37,2013-06-29 22:36:00,
2013-06-29 15:41:00,84.9,26.6,29.99,North,0,3.5,3.5,12,0.00,CLR,,0.00,WeatherDisplay:10.37,2013-06-29 22:41:00,
2013-06-29 15:46:00,85.3,26.9,29.99,West,270,3.5,3.5,12,0.00,CLR,,0.00,WeatherDisplay:10.37,2013-06-29 22:46:00,
2013-06-29 15:51:00,85.5,27.0,29.99,West,270,3.5,3.5,12,0.00,CLR,,0.00,WeatherDisplay:10.37,2013-06-29 22:51:00,
2013-06-29 15:56:00,85.5,27.0,29.99,South,180,4.6,4.6,12,0.00,CLR,,0.00,WeatherDisplay:10.37,2013-06-29 22:56:00,
2013-06-29 16:01:00,85.3,26.9,29.99,South,180,5.8,5.8,12,0.00,CLR,,0.00,WeatherDisplay:10.37,2013-06-29 23:01:00,
2013-06-29 16:06:00,85.1,26.8,29.98,North,0,4.6,4.6,12,0.00,CLR,,0.00,WeatherDisplay:10.37,2013-06-29 23:06:00,
2013-06-29 16:11:00,84.7,26.5,29.98,NE,45,4.6,4.6,12,0.00,CLR,,0.00,WeatherDisplay:10.37,2013-06-29 23:11:00,
2013-06-29 16:16:00,84.0,25.9,29.98,NW,315,8.1,8.1,12,0.00,CLR,,0.00,WeatherDisplay:10.37,2013-06-29 23:16:00,
2013-06-29 16:21:00,83.7,25.6,29.98,West,270,8.1,8.1,12,0.00,CLR,,0.00,WeatherDisplay:10.37,2013-06-29 23:21:00,
2013-06-29 16:26:00,84.0,25.9,29.97,NW,315,8.1,8.1,12,0.00,CLR,,0.00,WeatherDisplay:10.37,2013-06-29 23:26:00,
2013-06-29 16:31:00,84.0,25.9,29.98,West,270,9.2,9.2,12,0.00,CLR,,0.00,WeatherDisplay:10.37,2013-06-29 23:31:00,
2013-06-29 16:36:00,82.9,25.1,29.97,North,0,9.2,9.2,12,0.00,CLR,,0.00,WeatherDisplay:10.37,2013-06-29 23:36:00,
2013-06-29 16:41:00,83.3,25.4,29.97,SW,225,5.8,5.8,12,0.00,CLR,,0.00,WeatherDisplay:10.37,2013-06-29 23:41:00,
2013-06-29 16:46:00,84.2,26.1,29.97,West,270,5.8,5.8,12,0.00,CLR,,0.00,WeatherDisplay:10.37,2013-06-29 23:46:00,
2013-06-29 16:51:00,85.5,27.0,29.97,NW,315,5.8,5.8,12,0.00,CLR,,0.00,WeatherDisplay:10.37,2013-06-29 23:51:00,
2013-06-29 16:56:00,84.0,25.9,29.97,West,270,6.9,6.9,12,0.00,CLR,,0.00,WeatherDisplay:10.37,2013-06-29 23:56:00,
2013-06-29 17:01:00,83.3,25.4,29.97,NW,315,5.8,5.8,12,0.00,CLR,,0.00,WeatherDisplay:10.37,2013-06-30 00:01:00,
2013-06-29 17:06:00,82.8,24.9,29.97,SE,135,3.5,3.5,12,0.00,CLR,,0.00,WeatherDisplay:10.37,2013-06-30 00:06:00,
2013-06-29 17:11:00,83.1,25.2,29.98,NW,315,3.5,3.5,12,0.00,CLR,,0.00,WeatherDisplay:10.37,2013-06-30 00:11:00,
2013-06-29 17:16:00,82.9,25.1,29.97,SW,225,5.8,5.8,12,0.00,CLR,,0.00,WeatherDisplay:10.37,2013-06-30 00:16:00,
2013-06-29 17:21:00,82.6,24.8,29.98,West,270,4.6,4.6,12,0.00,CLR,,0.00,WeatherDisplay:10.37,2013-06-30 00:21:00,
2013-06-29 17:26:00,81.9,24.2,29.97,South,180,11.5,11.5,12,0.00,CLR,,0.00,WeatherDisplay:10.37,2013-06-30 00:26:00,
2013-06-29 17:31:00,81.9,24.2,29.97,NW,315,3.5,3.5,12,0.00,CLR,,0.00,WeatherDisplay:10.37,2013-06-30 00:31:00,
2013-06-29 17:36:00,81.9,24.2,29.97,South,180,5.8,5.8,12,0.00,CLR,,0.00,WeatherDisplay:10.37,2013-06-30 00:36:00,
2013-06-29 17:41:00,80.2,23.0,29.96,SW,225,9.2,9.2,12,0.00,CLR,,0.00,WeatherDisplay:10.37,2013-06-30 00:41:00,
2013-06-29 17:46:00,80.2,23.0,29.97,NW,315,3.5,3.5,12,0.00,CLR,,0.00,WeatherDisplay:10.37,2013-06-30 00:46:00,
2013-06-29 17:51:00,81.0,23.5,29.97,West,270,5.8,5.8,12,0.00,CLR,,0.00,WeatherDisplay:10.37,2013-06-30 00:51:00,
2013-06-29 17:56:00,80.1,22.8,29.97,North,0,5.8,5.8,12,0.00,CLR,,0.00,WeatherDisplay:10.37,2013-06-30 00:56:00,
2013-06-29 18:01:00,79.2,22.1,29.97,North,0,8.1,8.1,12,0.00,CLR,,0.00,WeatherDisplay:10.37,2013-06-30 01:01:00,
2013-06-29 18:06:00,79.3,22.3,29.97,West,270,4.6,4.6,12,0.00,CLR,,0.00,WeatherDisplay:10.37,2013-06-30 01:06:00,
2013-06-29 18:11:00,78.8,21.9,29.97,NW,315,9.2,9.2,12,0.00,CLR,,0.00,WeatherDisplay:10.37,2013-06-30 01:11:00,
2013-06-29 18:16:00,78.4,21.6,29.97,West,270,10.4,10.4,12,0.00,CLR,,0.00,WeatherDisplay:10.37,2013-06-30 01:16:00,
2013-06-29 18:21:00,78.1,21.3,29.97,NW,315,10.4,10.4,12,0.00,CLR,,0.00,WeatherDisplay:10.37,2013-06-30 01:21:00,
2013-06-29 18:26:00,78.6,21.7,29.97,West,270,9.2,9.2,12,0.00,CLR,,0.00,WeatherDisplay:10.37,2013-06-30 01:26:00,
2013-06-29 18:31:00,78.6,21.7,29.96,West,270,5.8,5.8,12,0.00,CLR,,0.00,WeatherDisplay:10.37,2013-06-30 01:31:00,
2013-06-29 18:36:00,78.8,21.9,29.96,West,270,9.2,9.2,12,0.00,CLR,,0.00,WeatherDisplay:10.37,2013-06-30 01:36:00,
2013-06-29 18:41:00,78.4,21.6,29.96,West,270,8.1,8.1,12,0.00,CLR,,0.00,WeatherDisplay:10.37,2013-06-30 01:41:00,
2013-06-29 18:47:00,78.4,21.6,29.96,NE,45,8.1,8.1,12,0.00,CLR,,0.00,WeatherDisplay:10.37,2013-06-30 01:47:00,
2013-06-29 18:52:00,79.2,22.1,29.96,North,0,4.6,4.6,12,0.00,CLR,,0.00,WeatherDisplay:10.37,2013-06-30 01:52:00,
2013-06-29 18:57:00,80.2,23.0,29.96,West,270,2.3,2.3,12,0.00,CLR,,0.00,WeatherDisplay:10.37,2013-06-30 01:57:00,
2013-06-29 19:02:00,81.3,23.8,29.96,NE,45,4.6,0.0,12,0.00,CLR,,0.00,WeatherDisplay:10.37,2013-06-30 02:02:00,
2013-06-29 19:07:00,81.7,24.1,29.96,NE,45,3.5,3.5,12,0.00,CLR,,0.00,WeatherDisplay:10.37,2013-06-30 02:07:00,
2013-06-29 19:12:00,81.1,23.7,29.95,West,270,5.8,5.8,12,0.00,CLR,,0.00,WeatherDisplay:10.37,2013-06-30 02:12:00,
2013-06-29 19:17:00,80.6,23.3,29.95,South,180,3.5,3.5,12,0.00,CLR,,0.00,WeatherDisplay:10.37,2013-06-30 02:17:00,
2013-06-29 19:22:00,80.6,23.3,29.95,West,270,4.6,4.6,12,0.00,CLR,,0.00,WeatherDisplay:10.37,2013-06-30 02:22:00,
2013-06-29 19:27:00,79.5,22.4,29.95,West,270,5.8,5.8,12,0.00,CLR,,0.00,WeatherDisplay:10.37,2013-06-30 02:27:00,
2013-06-29 19:32:00,79.2,22.1,29.95,NW,315,5.8,5.8,12,0.00,CLR,,0.00,WeatherDisplay:10.37,2013-06-30 02:32:00,
2013-06-29 19:37:00,78.8,21.9,29.95,NW,315,6.9,6.9,12,0.00,CLR,,0.00,WeatherDisplay:10.37,2013-06-30 02:37:00,
2013-06-29 19:42:00,78.6,21.7,29.95,NW,315,4.6,4.6,12,0.00,CLR,,0.00,WeatherDisplay:10.37,2013-06-30 02:42:00,
2013-06-29 19:47:00,78.3,21.4,29.95,West,270,4.6,4.6,12,0.00,CLR,,0.00,WeatherDisplay:10.37,2013-06-30 02:47:00,
2013-06-29 19:52:00,78.1,21.3,29.94,West,270,3.5,3.5,12,0.00,CLR,,0.00,WeatherDisplay:10.37,2013-06-30 02:52:00,
2013-06-29 19:57:00,78.1,21.3,29.95,NW,315,4.6,4.6,12,0.00,CLR,,0.00,WeatherDisplay:10.37,2013-06-30 02:57:00,
2013-06-29 20:02:00,78.1,21.3,29.94,West,270,2.3,0.0,12,0.00,CLR,,0.00,WeatherDisplay:10.37,2013-06-30 03:02:00,
2013-06-29 20:07:00,77.7,21.0,29.94,NW,315,3.5,3.5,12,0.00,CLR,,0.00,WeatherDisplay:10.37,2013-06-30 03:07:00,
2013-06-29 20:12:00,76.6,20.2,29.95,SW,225,4.6,0.0,12,0.00,CLR,,0.00,WeatherDisplay:10.37,2013-06-30 03:12:00,
2013-06-29 20:17:00,74.8,18.8,29.95,NW,315,3.5,0.0,12,0.00,CLR,,0.00,WeatherDisplay:10.37,2013-06-30 03:17:00,
2013-06-29 20:22:00,72.9,17.2,29.95,North,0,2.3,0.0,12,0.00,CLR,,0.00,WeatherDisplay:10.37,2013-06-30 03:22:00,
2013-06-29 20:27:00,71.4,16.1,29.95,South,180,1.2,0.0,12,0.00,CLR,,0.00,WeatherDisplay:10.37,2013-06-30 03:27:00,
2013-06-29 20:32:00,70.3,15.3,29.95,SW,225,1.2,0.0,12,0.00,CLR,,0.00,WeatherDisplay:10.37,2013-06-30 03:32:00,
2013-06-29 20:37:00,69.4,14.6,29.95,South,180,3.5,0.0,12,0.00,CLR,,0.00,WeatherDisplay:10.37,2013-06-30 03:37:00,
2013-06-29 20:42:00,68.7,14.0,29.95,West,270,5.8,5.8,12,0.00,CLR,,0.00,WeatherDisplay:10.37,2013-06-30 03:42:00,
2013-06-29 20:47:00,68.0,13.4,29.95,NW,315,5.8,5.8,12,0.00,CLR,,0.00,WeatherDisplay:10.37,2013-06-30 03:47:00,
2013-06-29 20:52:00,67.1,12.7,29.95,West,270,3.5,3.5,12,0.00,CLR,,0.00,WeatherDisplay:10.37,2013-06-30 03:52:00,
2013-06-29 20:57:00,66.7,12.4,29.95,North,0,3.5,0.0,12,0.00,CLR,,0.00,WeatherDisplay:10.37,2013-06-30 03:57:00,
2013-06-29 21:01:00,66.2,12.0,29.95,West,270,3.5,3.5,12,0.00,CLR,,0.00,WeatherDisplay:10.37,2013-06-30 04:01:00,
2013-06-29 21:02:00,66.2,12.0,29.95,SW,225,3.5,3.5,12,0.00,CLR,,0.00,WeatherDisplay:10.37,2013-06-30 04:02:00,
2013-06-29 21:05:00,65.8,13.6,29.95,SW,225,4.6,4.6,13,0.00,CLR,,0.00,WeatherDisplay:10.37,2013-06-30 04:05:00,
2013-06-29 21:10:00,65.7,18.2,29.95,SSW,202,2.3,2.3,16,0.00,CLR,,0.00,WeatherDisplay:10.37,2013-06-30 04:10:00,
2013-06-29 21:15:00,65.1,20.5,29.95,South,180,2.3,2.3,18,0.00,CLR,,0.00,WeatherDisplay:10.37,2013-06-30 04:15:00,
2013-06-29 21:20:00,64.8,26.1,29.96,SW,225,4.6,4.6,23,0.00,CLR,,0.00,WeatherDisplay:10.37,2013-06-30 04:20:00,
2013-06-29 21:25:00,64.0,32.0,29.96,SW,225,3.5,3.5,30,0.00,CLR,,0.00,WeatherDisplay:10.37,2013-06-30 04:25:00,
2013-06-29 21:30:00,63.9,34.2,29.96,SW,225,4.6,4.6,33,0.00,CLR,,0.00,WeatherDisplay:10.37,2013-06-30 04:30:00,
2013-06-29 21:35:00,63.7,35.5,29.96,SW,225,1.2,1.2,35,0.00,CLR,,0.00,WeatherDisplay:10.37,2013-06-30 04:35:00,
2013-06-29 21:40:00,63.5,37.4,29.96,SW,225,4.6,4.6,38,0.00,CLR,,0.00,WeatherDisplay:10.37,2013-06-30 04:40:00,
2013-06-29 21:45:00,63.3,37.3,29.96,South,180,2.3,2.3,38,0.00,CLR,,0.00,WeatherDisplay:10.37,2013-06-30 04:45:00,
2013-06-29 21:50:00,63.1,38.4,29.97,SW,225,5.8,5.8,40,0.00,CLR,,0.00,WeatherDisplay:10.37,2013-06-30 04:50:00,
2013-06-29 21:55:00,63.1,38.4,29.97,SW,225,3.5,3.5,40,0.00,CLR,,0.00,WeatherDisplay:10.37,2013-06-30 04:55:00,
2013-06-29 22:00:00,63.0,38.9,29.96,SSW,202,2.3,0.0,41,0.00,CLR,,0.00,WeatherDisplay:10.37,2013-06-30 05:00:00,
2013-06-29 22:05:00,62.8,38.7,29.97,SW,225,2.3,2.3,41,0.00,CLR,,0.00,WeatherDisplay:10.37,2013-06-30 05:05:00,
2013-06-29 22:10:00,62.8,39.3,29.97,SW,225,1.2,0.0,42,0.00,CLR,,0.00,WeatherDisplay:10.37,2013-06-30 05:10:00,
2013-06-29 22:15:00,62.6,39.2,29.97,South,180,1.2,1.6,42,0.00,CLR,,0.00,WeatherDisplay:10.37,2013-06-30 05:15:00,
2013-06-29 22:20:00,62.2,39.5,29.97,SW,225,2.3,2.3,43,0.00,CLR,,0.00,WeatherDisplay:10.37,2013-06-30 05:20:00,
2013-06-29 22:25:00,62.1,39.3,29.96,SW,225,1.2,0.0,43,0.00,CLR,,0.00,WeatherDisplay:10.37,2013-06-30 05:25:00,
2013-06-29 22:30:00,61.7,40.1,29.97,SW,225,1.2,0.0,45,0.00,CLR,,0.00,WeatherDisplay:10.37,2013-06-30 05:30:00,
2013-06-29 22:31:00,61.7,40.1,29.97,SW,225,1.2,0.0,45,0.00,CLR,,0.00,WeatherDisplay:10.37,2013-06-30 05:31:00,
2013-06-29 22:36:00,61.9,42.0,29.97,SW,225,3.5,3.5,48,0.00,CLR,,0.00,WeatherDisplay:10.37,2013-06-30 05:36:00,
2013-06-29 22:41:00,61.9,42.5,29.96,SW,225,1.6,1.6,49,0.00,CLR,,0.00,WeatherDisplay:10.37,2013-06-30 05:41:00,
2013-06-29 22:46:00,61.9,43.0,29.97,SW,225,2.3,0.0,50,0.00,CLR,,0.00,WeatherDisplay:10.37,2013-06-30 05:46:00,
2013-06-29 22:51:00,61.7,43.4,29.96,South,180,3.5,3.5,51,0.00,CLR,,0.00,WeatherDisplay:10.37,2013-06-30 05:51:00,
2013-06-29 22:56:00,61.7,43.9,29.97,South,180,2.3,2.3,52,0.00,CLR,,0.00,WeatherDisplay:10.37,2013-06-30 05:56:00,
2013-06-29 23:01:00,61.7,44.4,29.97,South,180,1.2,1.2,53,0.00,CLR,,0.00,WeatherDisplay:10.37,2013-06-30 06:01:00,
2013-06-29 23:06:00,61.5,44.2,29.96,SW,225,1.2,1.2,53,0.00,CLR,,0.00,WeatherDisplay:10.37,2013-06-30 06:06:00,
2013-06-29 23:11:00,61.5,45.2,29.97,SW,225,3.5,0.0,55,0.00,CLR,,0.00,WeatherDisplay:10.37,2013-06-30 06:11:00,
2013-06-29 23:16:00,61.3,45.0,29.96,West,270,1.2,0.0,55,0.00,CLR,,0.00,WeatherDisplay:10.37,2013-06-30 06:16:00,
2013-06-29 23:21:00,61.5,45.7,29.97,SW,225,4.6,4.6,56,0.00,CLR,,0.00,WeatherDisplay:10.37,2013-06-30 06:21:00,
2013-06-29 23:26:00,61.7,46.3,29.96,West,270,1.2,1.2,57,0.00,CLR,,0.00,WeatherDisplay:10.37,2013-06-30 06:26:00,
2013-06-29 23:31:00,61.5,46.1,29.97,SW,225,1.2,0.0,57,0.00,CLR,,0.00,WeatherDisplay:10.37,2013-06-30 06:31:00,
2013-06-29 23:36:00,61.3,45.5,29.97,SW,225,2.3,0.0,56,0.00,CLR,,0.00,WeatherDisplay:10.37,2013-06-30 06:36:00,
2013-06-29 23:41:00,61.2,45.3,29.97,SW,225,1.2,0.0,56,0.00,CLR,,0.00,WeatherDisplay:10.37,2013-06-30 06:41:00,
2013-06-29 23:46:00,61.3,46.0,29.97,SW,225,2.3,2.3,57,0.00,CLR,,0.00,WeatherDisplay:10.37,2013-06-30 06:46:00,
2013-06-29 23:51:00,61.3,46.4,29.97,SW,225,2.3,2.3,58,0.00,CLR,,0.00,WeatherDisplay:10.37,2013-06-30 06:51:00,
2013-06-29 23:56:00,61.5,47.1,29.97,South,180,2.3,2.3,59,0.00,CLR,,0.00,WeatherDisplay:10.37,2013-06-30 06:56:00,